Flight Track Log - Related Links

Times and Time Zones

All times are in EDT time to prevent confusion due to time zone crossing. See the AWI3551 flight status page for this flight to view local times or setup timezone preferences in your user account.

Time Position Orientation Groundspeed Altitude Reporting Facility
EDT Latitude Longitude Course Direction KTS MPH feet Rate Location/Type
Mon 05:30:16 AM 42.9333 -78.7500 174° South 155 178 1,700  Level Buffalo TRACON
Mon 05:31:22 AM 42.8833 -78.8167 224° Southwest 213 245 4,000 1,929 Climbing Buffalo TRACON
Mon 05:32:00 AM 42.6240 -78.6848 172° South  Level FlightAware Approximate
Mon 05:32:36 AM 42.8114 -78.8086 175° South 236 272 6,200  Level Cleveland Center
Mon 05:33:00 AM 42.5305 -78.6662 173° South  Level FlightAware Approximate
Mon 05:33:37 AM 42.7381 -78.7881 168° South 253 291 8,300  Level Cleveland Center
Mon 05:34:00 AM 42.4367 -78.6506 173° South  Level FlightAware Approximate
Mon 05:34:37 AM 42.6731 -78.7647 165° South 274 315 10,400  Level Cleveland Center
Mon 05:35:00 AM 42.3424 -78.6465 174° South  Level FlightAware Approximate
Mon 05:35:38 AM 42.5914 -78.7444 170° South 283 326 12,400  Level Cleveland Center
Mon 05:36:36 AM 42.5097 -78.7072 161° South 302 348 14,700 2,269 Climbing Cleveland Center
Mon 05:37:37 AM 42.4256 -78.6706 162° South 312 359 16,900 1,835 Climbing Cleveland Center
Mon 05:38:37 AM 42.3394 -78.6281 160° South 320 368 18,400 1,500 Climbing Cleveland Center
Mon 05:39:37 AM 42.2492 -78.5889 162° South 336 387 19,900 1,613 Climbing Cleveland Center
Mon 05:40:36 AM 42.1525 -78.5442 161° South 350 403 21,600 1,462 Climbing Cleveland Center
Mon 05:41:36 AM 42.0581 -78.5053 163° South 355 409 22,800 1,190 Climbing Cleveland Center
Mon 05:42:37 AM 41.9633 -78.4608 161° South 360 414 24,000 1,100 Climbing Cleveland Center
Mon 05:43:36 AM 41.8644 -78.4139 161° South 372 428 25,000 324 Climbing Cleveland Center
Mon 05:45:42 AM 41.6339 -78.3122 162° South 414 476 25,000  Level New York Center
Mon 05:46:43 AM 41.5306 -78.2675 162° South 409 471 25,000  Level New York Center
Mon 05:47:42 AM 41.4272 -78.2200 161° South 403 464 25,000  Level New York Center
Mon 05:48:42 AM 41.3342 -78.1764 161° South 397 457 25,000  Level New York Center
Mon 05:49:41 AM 41.2347 -78.1325 162° South 391 450 25,000  Level New York Center
Mon 05:50:41 AM 41.1314 -78.0881 162° South 386 444 25,000  Level New York Center
Mon 05:51:41 AM 41.0300 -78.0414 161° South 386 444 25,000 -195 Level New York Center
Mon 05:52:44 AM 40.9306 -77.9978 162° South 386 444 24,600 -595 Descending New York Center
Mon 05:53:42 AM 40.8567 -77.9078 137° Southeast 364 419 23,800 -1,017 Descending New York Center
Mon 05:54:42 AM 40.7919 -77.8050 130° Southeast 364 419 22,600 -1,200 Descending New York Center
Mon 05:55:42 AM 40.7269 -77.7078 131° Southeast 359 413 21,400 -1,550 Descending New York Center
Mon 05:56:42 AM 40.6617 -77.6083 131° Southeast 359 413 19,500 -1,613 Descending New York Center
Mon 05:57:41 AM 40.5886 -77.5025 132° Southeast 366 421 18,200 -744 Descending New York Center
Mon 05:58:43 AM 40.5253 -77.4061 131° Southeast 361 415 18,000 -100 Descending New York Center
Mon 05:59:41 AM 40.4656 -77.3158 131° Southeast 350 403 18,000  Level New York Center
Mon 06:00:42 AM 40.4072 -77.2039 124° Southeast 350 403 18,000  Level New York Center
Mon 06:01:43 AM 40.3661 -77.0775 113° Southeast 364 419 18,000  Level New York Center
Mon 06:02:42 AM 40.3308 -76.9572 111° Southeast 379 436 18,000 -151 Level New York Center
Mon 06:03:42 AM 40.2858 -76.8169 113° Southeast 384 442 17,700 -694 Descending New York Center
Mon 06:04:43 AM 40.2461 -76.6967 113° Southeast 378 435 16,600 -958 Descending New York Center
Mon 06:05:41 AM 40.2036 -76.5842 116° Southeast 363 418 15,800 -1,300 Descending New York Center
Mon 06:06:43 AM 40.1569 -76.5206 134° Southeast 324 373 14,000 -2,300 Descending New York Center
Mon 06:07:41 AM 40.1269 -76.4067 109° East 289 333 11,200 -1,550 Descending New York Center
Mon 06:08:43 AM 40.1214 -76.3006 94° East 307 353 10,900 -541 Descending New York Center
Mon 06:09:43 AM 40.1103 -76.1828 97° East 307 353 10,100 -1,322 Descending New York Center
Mon 06:10:41 AM 40.1047 -76.0739 94° East 283 326 8,300 -1,700 Descending New York Center
Mon 06:11:43 AM 40.0789 -75.9986 114° Southeast 260 299 6,700 -1,200 Descending New York Center
Mon 06:12:41 AM 40.0128 -75.9422 147° Southeast 248 285 5,900 -403 Descending New York Center
Mon 06:13:42 AM 39.9583 -75.8975 148° Southeast 256 295 5,900 49 Level New York Center
Mon 06:14:43 AM 39.9039 -75.8528 148° Southeast 232 267 6,000 50 Climbing New York Center
Mon 06:15:41 AM 39.8700 -75.8206 144° Southeast 188 216 6,000  Level New York Center
Mon 06:16:42 AM 39.8236 -75.7850 150° Southeast 177 204 6,000 -500 Level New York Center
Mon 06:17:41 AM 39.7958 -75.7478 134° Southeast 171 197 5,000 -958 Descending New York Center
Mon 06:18:41 AM 39.7819 -75.6792 105° East 169 194 4,100 -488 Descending New York Center
Mon 06:19:44 AM 39.7908 -75.6178 79° East 180 207 4,000 -74 Descending New York Center
Mon 06:20:02 AM 39.8000 -75.5833 71° East 196 226 4,000 -77 Level Philadelphia TRACON
Mon 06:21:02 AM 39.8167 -75.5167 72° East 199 229 3,900 -600 Descending Philadelphia TRACON
Mon 06:22:02 AM 39.8333 -75.4500 72° East 193 222 2,800 -1,000 Descending Philadelphia TRACON
Mon 06:23:02 AM 39.8333 -75.3833 90° East 159 183 1,900 -850 Descending Philadelphia TRACON
Mon 06:24:02 AM 39.8500 -75.3333 67° East 124 143 1,100 -750 Descending Philadelphia TRACON
Mon 06:25:02 AM 39.8500 -75.3000 90° East 130 150 400 -700 Descending Philadelphia TRACON

Login

Don't have an account? Register now (free) for customized features, flight alerts, and more!